Time;durP1;ratioP1;P1;durP2;ratioP2;P2;SDS_P1;SDS_P2;PMS_P1;PMS_P2;Temp;Humidity;BMP_temperature;BMP_pressure;BME280_temperature;BME280_humidity;BME280_pressure;Samples;Min_cycle;Max_cycle;Signal;HPM_P1;HPM_P2
2024/03/25 00:00:39;;;;;;;20.27;3.13;;;6.00;99.90;;;;;;5026444;28;20487;-75
2024/03/25 00:03:05;;;;;;;17.88;2.90;;;6.00;99.90;;;;;;5026323;28;20025;-75
2024/03/25 00:05:32;;;;;;;18.98;2.70;;;6.00;99.90;;;;;;5018364;28;20026;-75
2024/03/25 00:07:58;;;;;;;19.10;3.22;;;5.90;99.90;;;;;;5020336;28;20108;-76
2024/03/25 00:10:24;;;;;;;14.38;2.08;;;5.90;99.90;;;;;;5013206;28;20091;-75
2024/03/25 00:12:52;;;;;;;11.07;2.10;;;5.90;99.90;;;;;;5026247;28;20296;-76
2024/03/25 00:15:19;;;;;;;10.48;2.20;;;5.90;99.90;;;;;;5027029;28;20025;-75
2024/03/25 00:17:46;;;;;;;11.82;2.22;;;5.90;99.90;;;;;;4982009;28;1280857;-75
2024/03/25 00:20:13;;;;;;;13.93;2.15;;;5.90;99.90;;;;;;5013577;28;20624;-76
2024/03/25 00:22:38;;;;;;;14.07;2.40;;;5.80;99.90;;;;;;5026310;28;20060;-75
2024/03/25 00:25:04;;;;;;;13.25;1.80;;;5.80;99.90;;;;;;5018737;28;20053;-75
2024/03/25 00:27:30;;;;;;;13.95;2.42;;;5.80;99.90;;;;;;5016778;28;20029;-76
2024/03/25 00:29:56;;;;;;;13.93;2.20;;;5.70;99.90;;;;;;5017701;28;20030;-76
2024/03/25 00:32:22;;;;;;;15.25;2.35;;;5.70;99.90;;;;;;5016206;28;20120;-75
2024/03/25 00:34:47;;;;;;;16.42;2.35;;;5.70;99.90;;;;;;5023722;28;20108;-75
2024/03/25 00:37:14;;;;;;;11.57;2.25;;;5.70;99.90;;;;;;5026906;28;20494;-75
2024/03/25 00:39:39;;;;;;;17.45;2.70;;;5.70;99.90;;;;;;5013643;28;20128;-75
2024/03/25 00:42:05;;;;;;;18.30;2.70;;;5.70;99.90;;;;;;5015070;28;20129;-75
2024/03/25 00:44:31;;;;;;;19.15;2.65;;;5.80;99.90;;;;;;5019571;28;21006;-76
2024/03/25 00:46:56;;;;;;;17.67;2.63;;;5.80;99.90;;;;;;5016411;28;20422;-75
2024/03/25 00:49:22;;;;;;;19.98;2.78;;;5.80;99.90;;;;;;5012894;28;20147;-75
2024/03/25 00:51:48;;;;;;;17.13;2.80;;;5.70;99.90;;;;;;5019655;28;20018;-75
2024/03/25 00:54:14;;;;;;;17.08;2.70;;;5.70;99.90;;;;;;5020163;28;20426;-76
2024/03/25 00:56:39;;;;;;;22.20;2.80;;;5.70;99.90;;;;;;5012723;28;20413;-75
2024/03/25 00:59:06;;;;;;;20.20;2.72;;;5.70;99.90;;;;;;5013532;28;20057;-75
2024/03/25 01:01:35;;;;;;;23.48;3.10;;;5.70;99.90;;;;;;5024008;28;20048;-75
2024/03/25 01:04:01;;;;;;;18.02;2.85;;;5.70;99.90;;;;;;5016654;28;20109;-76
2024/03/25 01:06:27;;;;;;;14.70;2.28;;;5.70;99.90;;;;;;5031988;28;20071;-76
2024/03/25 01:08:53;;;;;;;17.65;2.58;;;5.70;99.90;;;;;;5014392;28;20009;-75
2024/03/25 01:11:18;;;;;;;17.60;3.25;;;5.70;99.90;;;;;;5026178;28;20048;-75
2024/03/25 01:13:44;;;;;;;23.23;3.03;;;5.70;99.90;;;;;;5011977;28;20017;-74
2024/03/25 01:16:10;;;;;;;24.90;3.53;;;5.70;99.90;;;;;;5014243;28;20030;-75
2024/03/25 01:18:36;;;;;;;18.45;2.35;;;5.70;99.90;;;;;;5019814;28;20041;-75
2024/03/25 01:21:02;;;;;;;17.92;3.03;;;5.70;99.90;;;;;;5016524;28;20021;-76
2024/03/25 01:23:28;;;;;;;25.42;3.38;;;5.60;99.90;;;;;;5023474;28;20022;-76
2024/03/25 01:25:54;;;;;;;16.40;3.05;;;5.70;99.90;;;;;;5017310;28;20036;-74
2024/03/25 01:28:20;;;;;;;22.75;3.00;;;5.60;99.90;;;;;;5019250;28;20030;-75
2024/03/25 01:30:45;;;;;;;22.65;3.28;;;5.60;99.90;;;;;;5016027;28;20022;-76
2024/03/25 01:33:11;;;;;;;15.27;3.20;;;5.60;99.90;;;;;;5019807;28;20024;-75
2024/03/25 01:35:37;;;;;;;21.80;3.25;;;5.50;99.90;;;;;;5009645;28;20434;-76
2024/03/25 01:38:03;;;;;;;19.42;3.33;;;5.50;99.90;;;;;;5012014;28;20032;-75
2024/03/25 01:40:29;;;;;;;21.02;2.92;;;5.60;99.90;;;;;;5012868;28;20069;-75
2024/03/25 01:42:58;;;;;;;18.73;3.00;;;5.50;99.90;;;;;;5019811;28;20415;-76
2024/03/25 01:45:26;;;;;;;19.98;3.30;;;5.50;99.90;;;;;;5017505;28;20115;-76
2024/03/25 01:47:53;;;;;;;16.77;3.03;;;5.50;99.90;;;;;;5012235;28;20044;-75
2024/03/25 01:50:19;;;;;;;21.42;2.90;;;5.50;99.90;;;;;;5026333;28;20026;-76
2024/03/25 01:52:45;;;;;;;18.27;2.83;;;5.50;99.90;;;;;;5011779;28;20184;-76
2024/03/25 01:55:16;;;;;;;20.65;3.47;;;5.50;99.90;;;;;;5026181;28;20097;-76
2024/03/25 01:57:43;;;;;;;21.55;2.95;;;5.50;99.90;;;;;;5025502;28;20061;-76
2024/03/25 02:00:10;;;;;;;17.83;2.90;;;5.50;99.90;;;;;;5012629;28;20026;-76
2024/03/25 02:02:41;;;;;;;24.10;3.35;;;5.50;99.90;;;;;;5013483;28;20029;-76
2024/03/25 02:05:07;;;;;;;19.95;3.10;;;5.50;99.90;;;;;;5019147;28;20554;-76
2024/03/25 02:07:37;;;;;;;18.50;2.97;;;5.50;99.90;;;;;;5016684;28;20026;-76
2024/03/25 02:10:09;;;;;;;19.00;3.17;;;5.40;99.90;;;;;;5012347;28;20029;-76
2024/03/25 02:12:36;;;;;;;24.35;4.10;;;5.40;99.90;;;;;;5014841;28;20025;-75
2024/03/25 02:15:02;;;;;;;24.55;3.55;;;5.40;99.90;;;;;;5020168;28;20436;-75
2024/03/25 02:17:28;;;;;;;20.85;4.05;;;5.40;99.90;;;;;;5013434;28;20053;-75
2024/03/25 02:19:53;;;;;;;21.73;3.65;;;5.40;99.90;;;;;;5024450;28;20041;-75
2024/03/25 02:22:19;;;;;;;14.43;3.38;;;5.40;99.90;;;;;;5025390;28;20032;-75
2024/03/25 02:24:46;;;;;;;18.88;3.67;;;5.30;99.90;;;;;;5013162;28;20034;-75
2024/03/25 02:27:14;;;;;;;18.17;3.72;;;5.30;99.90;;;;;;5024490;28;20036;-77
2024/03/25 02:29:41;;;;;;;17.70;3.80;;;5.30;99.90;;;;;;5025584;28;20030;-75
2024/03/25 02:32:10;;;;;;;22.00;4.00;;;5.30;99.90;;;;;;5010920;28;20058;-75
2024/03/25 02:34:37;;;;;;;23.40;3.60;;;5.30;99.90;;;;;;5019607;28;20025;-75
2024/03/25 02:37:03;;;;;;;23.20;4.40;;;5.30;99.90;;;;;;5017849;28;20147;-76
2024/03/25 02:39:29;;;;;;;22.65;4.15;;;5.30;99.90;;;;;;5024949;28;20048;-75
2024/03/25 02:41:55;;;;;;;27.50;3.85;;;5.30;99.90;;;;;;5025966;28;20099;-75
2024/03/25 02:44:22;;;;;;;18.25;3.85;;;5.30;99.90;;;;;;5021605;28;20026;-75
2024/03/25 02:46:48;;;;;;;23.42;3.85;;;5.30;99.90;;;;;;5014517;28;20036;-76
2024/03/25 02:49:14;;;;;;;16.45;3.75;;;5.30;99.90;;;;;;5011496;28;20030;-77
2024/03/25 02:51:39;;;;;;;20.02;3.22;;;5.30;99.90;;;;;;5020427;28;20109;-75
2024/03/25 02:54:05;;;;;;;21.60;3.00;;;5.20;99.90;;;;;;5021238;28;20030;-75
2024/03/25 02:56:31;;;;;;;21.77;3.40;;;5.20;99.90;;;;;;5015034;28;20026;-76
2024/03/25 02:58:56;;;;;;;19.83;3.75;;;5.20;99.90;;;;;;5028569;28;20029;-76
2024/03/25 03:01:22;;;;;;;18.27;4.05;;;5.10;99.90;;;;;;5015150;28;20018;-76
2024/03/25 03:03:47;;;;;;;18.02;3.63;;;5.10;99.90;;;;;;5027588;28;20545;-76
2024/03/25 03:06:13;;;;;;;24.90;3.78;;;5.10;99.90;;;;;;5020272;28;20048;-76
2024/03/25 03:08:39;;;;;;;20.98;3.80;;;5.10;99.90;;;;;;5014731;28;20029;-76
2024/03/25 03:11:04;;;;;;;15.50;3.47;;;5.10;99.90;;;;;;5016849;28;20096;-77
2024/03/25 03:13:30;;;;;;;16.77;3.40;;;5.00;99.90;;;;;;5022353;28;20022;-77
2024/03/25 03:15:55;;;;;;;20.60;3.55;;;5.00;99.90;;;;;;5019033;28;20028;-76
2024/03/25 03:18:21;;;;;;;19.98;3.90;;;5.00;99.90;;;;;;5014118;28;20050;-76
2024/03/25 03:20:49;;;;;;;16.58;3.45;;;5.00;99.90;;;;;;5020741;28;20030;-76
2024/03/25 03:23:14;;;;;;;19.05;4.13;;;5.00;99.90;;;;;;5022470;28;20063;-76
2024/03/25 03:25:40;;;;;;;25.17;3.85;;;5.00;99.90;;;;;;5014538;28;20049;-76
2024/03/25 03:28:06;;;;;;;20.92;4.80;;;5.00;99.90;;;;;;5016181;28;20030;-76
2024/03/25 03:30:32;;;;;;;19.27;3.25;;;5.00;99.90;;;;;;5012744;28;20041;-76
2024/03/25 03:32:57;;;;;;;22.48;4.05;;;5.00;99.90;;;;;;5021518;28;20035;-76
2024/03/25 03:35:23;;;;;;;25.48;3.58;;;5.00;99.90;;;;;;5020411;28;20398;-76
2024/03/25 03:37:48;;;;;;;26.83;4.28;;;5.00;99.90;;;;;;5027847;28;20073;-76
2024/03/25 03:40:14;;;;;;;16.15;4.38;;;5.00;99.90;;;;;;5017888;28;20014;-76
2024/03/25 03:42:40;;;;;;;18.17;4.40;;;4.90;99.90;;;;;;5022019;28;20033;-76
2024/03/25 03:45:06;;;;;;;21.48;3.90;;;5.00;99.90;;;;;;5016725;28;20371;-76
2024/03/25 03:47:32;;;;;;;20.20;3.80;;;4.90;99.90;;;;;;5013867;28;20554;-76
2024/03/25 03:49:58;;;;;;;22.60;4.43;;;4.90;99.90;;;;;;5021905;28;20069;-76
2024/03/25 03:52:24;;;;;;;27.58;4.70;;;4.90;99.90;;;;;;5020625;28;20053;-76
2024/03/25 03:54:49;;;;;;;18.20;4.10;;;4.80;99.90;;;;;;5027570;28;20014;-76
2024/03/25 03:57:15;;;;;;;19.08;4.45;;;4.80;99.90;;;;;;5018000;28;20117;-77
2024/03/25 03:59:40;;;;;;;19.40;4.65;;;4.80;99.90;;;;;;5023620;28;20363;-75
2024/03/25 04:02:08;;;;;;;27.90;4.80;;;4.80;99.90;;;;;;5027089;28;20021;-76
2024/03/25 04:04:34;;;;;;;16.58;4.25;;;4.80;99.90;;;;;;5011840;28;20125;-75
2024/03/25 04:07:01;;;;;;;22.67;5.03;;;4.80;99.90;;;;;;5029788;28;20108;-75
2024/03/25 04:09:29;;;;;;;23.83;4.53;;;4.80;99.90;;;;;;5014317;28;20116;-76
2024/03/25 04:11:55;;;;;;;20.63;4.05;;;4.80;99.90;;;;;;5012928;28;20033;-76
2024/03/25 04:14:20;;;;;;;22.00;4.32;;;4.80;99.90;;;;;;5014935;28;20022;-76
2024/03/25 04:16:47;;;;;;;17.85;3.83;;;4.70;99.90;;;;;;5021408;28;20453;-76
2024/03/25 04:19:13;;;;;;;18.75;4.43;;;4.60;99.90;;;;;;5016783;28;20108;-76
2024/03/25 04:21:39;;;;;;;16.17;3.80;;;4.60;99.90;;;;;;5026315;28;20395;-75
2024/03/25 04:24:05;;;;;;;19.13;4.07;;;4.60;99.90;;;;;;5020706;28;20022;-76
2024/03/25 04:26:31;;;;;;;19.40;4.30;;;4.60;99.90;;;;;;5021066;28;20029;-77
2024/03/25 04:28:57;;;;;;;24.92;4.72;;;4.60;99.90;;;;;;5013943;28;20070;-79
2024/03/25 04:31:23;;;;;;;11.90;3.95;;;4.60;99.90;;;;;;5026883;28;20022;-77
2024/03/25 04:33:48;;;;;;;20.98;4.53;;;4.50;99.90;;;;;;5013985;28;20468;-76
2024/03/25 04:36:14;;;;;;;22.52;4.93;;;4.50;99.90;;;;;;5020032;28;20431;-76
2024/03/25 04:38:39;;;;;;;19.08;4.35;;;4.50;99.90;;;;;;5018040;28;20022;-76
2024/03/25 04:41:05;;;;;;;13.23;3.45;;;4.40;99.90;;;;;;5013297;28;20108;-76
2024/03/25 04:43:31;;;;;;;21.40;4.35;;;4.40;99.90;;;;;;5017143;28;20037;-75
2024/03/25 04:46:00;;;;;;;18.50;4.47;;;4.40;99.90;;;;;;5020874;28;20034;-75
2024/03/25 04:48:26;;;;;;;20.60;5.40;;;4.40;99.90;;;;;;5014193;28;20108;-76
2024/03/25 04:50:52;;;;;;;24.15;5.15;;;4.30;99.90;;;;;;5013310;28;20113;-76
2024/03/25 04:53:17;;;;;;;25.83;4.50;;;4.30;99.90;;;;;;5019152;28;20531;-75
2024/03/25 04:55:43;;;;;;;21.65;4.40;;;4.30;99.90;;;;;;5018357;28;20025;-75
2024/03/25 04:58:09;;;;;;;22.77;4.60;;;4.30;99.90;;;;;;5012350;28;20037;-75
2024/03/25 05:00:34;;;;;;;22.77;5.03;;;4.30;99.90;;;;;;5016830;28;20034;-74
2024/03/25 05:03:00;;;;;;;21.10;4.28;;;4.30;99.90;;;;;;5020382;28;20057;-75
2024/03/25 05:05:26;;;;;;;23.25;4.53;;;4.30;99.90;;;;;;5014390;28;20063;-75
2024/03/25 05:07:52;;;;;;;26.65;4.88;;;4.30;99.90;;;;;;5012566;28;20026;-75
2024/03/25 05:10:17;;;;;;;18.38;3.92;;;4.30;99.90;;;;;;5020947;28;20369;-75
2024/03/25 05:12:44;;;;;;;18.48;4.63;;;4.30;99.90;;;;;;5018217;28;20435;-75
2024/03/25 05:15:10;;;;;;;22.02;4.00;;;4.30;99.90;;;;;;5012156;28;20021;-75
2024/03/25 05:17:36;;;;;;;16.00;3.53;;;4.30;99.90;;;;;;5014851;28;20454;-75
2024/03/25 05:20:04;;;;;;;19.00;4.60;;;4.30;99.90;;;;;;5018952;28;20030;-77
2024/03/25 05:22:30;;;;;;;21.20;4.40;;;4.30;99.90;;;;;;5019046;28;20068;-77
2024/03/25 05:24:56;;;;;;;23.67;3.80;;;4.20;99.90;;;;;;5011887;28;20057;-77
2024/03/25 05:27:21;;;;;;;23.00;3.95;;;4.30;99.90;;;;;;5026285;28;20032;-77
2024/03/25 05:29:49;;;;;;;27.17;5.25;;;4.30;99.90;;;;;;5017740;28;20025;-77
2024/03/25 05:32:16;;;;;;;20.35;4.20;;;4.30;99.90;;;;;;5020168;28;20025;-77
2024/03/25 05:34:42;;;;;;;24.02;4.35;;;4.30;99.90;;;;;;5012511;28;20025;-77
2024/03/25 05:37:07;;;;;;;26.45;4.18;;;4.30;99.90;;;;;;5013750;28;20455;-77
2024/03/25 05:39:33;;;;;;;19.67;3.90;;;4.30;99.90;;;;;;5024460;28;20078;-76
2024/03/25 05:41:59;;;;;;;18.27;4.18;;;4.30;99.90;;;;;;5026162;28;20033;-77
2024/03/25 05:44:24;;;;;;;17.35;3.72;;;4.30;99.90;;;;;;5011425;28;20044;-77
2024/03/25 05:46:50;;;;;;;15.32;3.97;;;4.30;99.90;;;;;;5016456;28;20505;-77
2024/03/25 05:49:15;;;;;;;26.85;4.25;;;4.30;99.90;;;;;;5020613;28;20079;-77
2024/03/25 05:51:41;;;;;;;24.52;4.45;;;4.30;99.90;;;;;;5019134;28;20026;-77
2024/03/25 05:54:07;;;;;;;23.52;4.28;;;4.40;99.90;;;;;;5018102;28;20032;-77
2024/03/25 05:56:34;;;;;;;19.17;3.67;;;4.40;99.90;;;;;;5012005;28;20055;-77
2024/03/25 05:59:00;;;;;;;17.75;4.00;;;4.40;99.90;;;;;;5015155;28;20442;-74
2024/03/25 06:01:27;;;;;;;21.85;4.10;;;4.40;99.90;;;;;;5031960;28;20075;-74
2024/03/25 06:03:53;;;;;;;20.40;3.72;;;4.50;99.90;;;;;;5014447;28;20025;-73
2024/03/25 06:06:19;;;;;;;20.88;4.00;;;4.50;99.90;;;;;;5011275;28;20164;-75
2024/03/25 06:08:45;;;;;;;25.20;4.43;;;4.50;99.90;;;;;;5012663;28;20117;-75
2024/03/25 06:11:10;;;;;;;26.23;4.22;;;4.50;99.90;;;;;;5012999;28;20130;-75
2024/03/25 06:13:36;;;;;;;22.42;4.45;;;4.50;99.90;;;;;;5019014;28;20127;-75
2024/03/25 06:16:02;;;;;;;27.25;4.72;;;4.50;99.90;;;;;;5016997;28;20048;-75
2024/03/25 06:18:28;;;;;;;21.20;3.90;;;4.50;99.90;;;;;;5021990;28;20454;-75
2024/03/25 06:20:53;;;;;;;23.75;3.70;;;4.60;99.90;;;;;;5018786;28;20059;-75
2024/03/25 06:23:23;;;;;;;20.73;4.32;;;4.60;99.90;;;;;;5024897;28;20431;-75
2024/03/25 06:25:51;;;;;;;16.77;3.88;;;4.60;99.90;;;;;;5014955;28;20021;-76
2024/03/25 06:28:16;;;;;;;22.85;4.25;;;4.60;99.90;;;;;;5015476;28;20030;-75
2024/03/25 06:36:10;;;;;;;17.48;3.83;;;4.70;99.90;;;;;;5028602;28;20410;-75
2024/03/25 06:38:36;;;;;;;25.10;4.05;;;4.70;99.90;;;;;;5029014;28;20014;-75
2024/03/25 06:41:01;;;;;;;20.15;4.43;;;4.80;99.90;;;;;;5014192;28;20129;-75
2024/03/25 06:43:27;;;;;;;20.42;3.63;;;4.80;99.90;;;;;;5028782;28;20788;-76
2024/03/25 06:45:53;;;;;;;24.23;4.00;;;4.80;99.90;;;;;;5028421;28;20033;-76
2024/03/25 06:48:18;;;;;;;23.63;4.90;;;4.90;99.90;;;;;;5017743;28;20056;-75
2024/03/25 06:50:57;;;;;;;20.67;3.90;;;4.90;99.90;;;;;;5029250;28;20393;-75
2024/03/25 06:53:23;;;;;;;17.80;4.07;;;5.00;99.90;;;;;;5014503;28;20418;-76
2024/03/25 06:55:57;;;;;;;21.48;3.90;;;5.00;99.90;;;;;;5023330;28;20021;-76
2024/03/25 06:58:25;;;;;;;24.95;4.70;;;5.00;99.90;;;;;;5027001;28;20099;-76
2024/03/25 07:00:51;;;;;;;21.38;3.97;;;5.10;99.90;;;;;;5023429;28;20021;-76
2024/03/25 07:03:20;;;;;;;19.80;4.40;;;5.20;99.90;;;;;;5021575;28;20112;-75
2024/03/25 07:05:47;;;;;;;23.92;4.18;;;5.20;99.90;;;;;;5015621;28;20108;-75
2024/03/25 07:08:13;;;;;;;24.58;4.30;;;5.30;99.90;;;;;;5020740;28;20433;-75
2024/03/25 07:10:41;;;;;;;22.70;4.60;;;5.40;99.90;;;;;;5016745;28;20057;-75
2024/03/25 07:13:07;;;;;;;20.20;4.53;;;5.50;99.90;;;;;;5013974;28;20384;-76
2024/03/25 07:15:33;;;;;;;26.55;4.32;;;5.50;99.90;;;;;;5026703;28;20028;-76
2024/03/25 07:17:59;;;;;;;19.85;4.10;;;5.60;99.90;;;;;;5010264;28;20046;-76
2024/03/25 07:20:26;;;;;;;20.30;4.07;;;5.70;99.90;;;;;;5017012;28;20503;-75
2024/03/25 07:22:55;;;;;;;20.98;4.88;;;5.70;99.90;;;;;;5027973;28;20515;-74
2024/03/25 07:25:24;;;;;;;22.27;4.53;;;5.80;99.90;;;;;;5026385;28;20022;-74
2024/03/25 07:27:50;;;;;;;17.50;4.22;;;5.80;99.90;;;;;;5043220;28;20803;-74
2024/03/25 07:30:15;;;;;;;20.20;5.63;;;5.90;99.90;;;;;;5023142;28;20033;-74
2024/03/25 07:32:41;;;;;;;20.10;4.68;;;6.00;99.90;;;;;;5027372;28;20189;-74
2024/03/25 07:35:09;;;;;;;27.63;4.22;;;6.10;99.90;;;;;;5027187;28;20010;-74
2024/03/25 07:37:35;;;;;;;15.93;4.45;;;6.10;99.90;;;;;;5012953;28;20483;-74
2024/03/25 07:40:00;;;;;;;18.95;5.05;;;6.20;99.90;;;;;;5021397;28;20025;-75
2024/03/25 07:42:26;;;;;;;21.65;4.45;;;6.30;99.90;;;;;;5025223;28;20357;-75
2024/03/25 07:44:52;;;;;;;20.40;4.53;;;6.40;99.90;;;;;;5025493;28;20025;-74
2024/03/25 07:47:18;;;;;;;18.67;4.32;;;6.50;99.90;;;;;;5023447;28;20033;-75
2024/03/25 07:49:44;;;;;;;22.63;4.57;;;6.50;99.90;;;;;;5025165;28;20044;-74
2024/03/25 07:52:10;;;;;;;19.83;4.05;;;6.70;99.90;;;;;;5018450;28;20029;-75
2024/03/25 07:54:38;;;;;;;19.85;4.88;;;6.70;99.90;;;;;;5013484;28;20549;-74
2024/03/25 07:57:04;;;;;;;20.92;4.53;;;6.80;99.90;;;;;;5027172;28;20383;-75
2024/03/25 07:59:30;;;;;;;16.40;4.65;;;6.90;99.90;;;;;;5024658;28;20043;-75
2024/03/25 08:01:56;;;;;;;20.88;4.40;;;7.00;99.90;;;;;;5027106;28;20033;-75
2024/03/25 08:04:22;;;;;;;23.60;5.05;;;7.00;99.90;;;;;;5022196;28;20032;-75
2024/03/25 08:06:47;;;;;;;26.83;5.63;;;7.10;99.90;;;;;;5025285;28;20196;-74
2024/03/25 08:09:15;;;;;;;20.67;4.68;;;7.20;99.90;;;;;;5024102;28;20029;-74
2024/03/25 08:11:43;;;;;;;21.98;4.88;;;7.30;99.90;;;;;;5023713;28;20048;-74
2024/03/25 08:14:09;;;;;;;24.55;5.53;;;7.40;99.90;;;;;;5025971;28;20470;-74
2024/03/25 08:16:34;;;;;;;18.20;4.60;;;7.50;99.90;;;;;;5012209;28;20034;-74
2024/03/25 08:19:00;;;;;;;18.70;4.70;;;7.50;99.90;;;;;;5026245;28;20522;-75
2024/03/25 08:21:26;;;;;;;17.95;5.40;;;7.60;99.90;;;;;;5025608;28;20487;-74
2024/03/25 08:23:52;;;;;;;20.63;5.82;;;7.70;99.90;;;;;;5023773;28;20110;-74
2024/03/25 08:26:17;;;;;;;21.58;5.00;;;7.80;99.90;;;;;;5015626;28;20857;-75
2024/03/25 08:28:43;;;;;;;20.42;5.30;;;7.90;99.90;;;;;;5017838;28;20021;-74
2024/03/25 08:31:09;;;;;;;28.40;5.63;;;8.00;99.90;;;;;;5013778;28;20021;-74
2024/03/25 08:33:34;;;;;;;16.40;4.97;;;8.10;99.90;;;;;;5006150;28;20140;-74
2024/03/25 08:36:00;;;;;;;20.40;5.35;;;8.20;99.90;;;;;;5019643;28;20498;-74
2024/03/25 08:38:26;;;;;;;24.23;5.75;;;8.30;99.90;;;;;;5014948;28;20336;-75
2024/03/25 08:40:52;;;;;;;21.20;5.65;;;8.40;99.90;;;;;;5009555;28;20022;-75
2024/03/25 08:43:18;;;;;;;17.85;4.20;;;8.50;99.90;;;;;;5018260;28;20025;-75
2024/03/25 08:45:45;;;;;;;18.92;4.95;;;8.50;99.90;;;;;;5019818;28;20048;-75
2024/03/25 08:48:10;;;;;;;19.95;5.07;;;8.50;99.90;;;;;;5012527;28;20043;-75
2024/03/25 08:50:36;;;;;;;17.08;4.65;;;8.60;99.90;;;;;;5014359;28;20470;-75
2024/03/25 08:53:03;;;;;;;15.68;4.78;;;8.60;99.90;;;;;;5020596;28;20028;-75
2024/03/25 08:55:29;;;;;;;21.17;5.80;;;8.70;99.90;;;;;;5016028;28;20057;-75
2024/03/25 08:57:55;;;;;;;16.27;4.40;;;8.90;99.90;;;;;;5011264;28;20496;-74
2024/03/25 09:00:20;;;;;;;25.58;5.38;;;8.90;99.90;;;;;;5018435;28;20499;-75
2024/03/25 09:02:46;;;;;;;17.08;4.15;;;9.00;99.90;;;;;;5020123;28;20032;-74
2024/03/25 09:05:13;;;;;;;13.52;4.10;;;9.10;99.90;;;;;;5011810;28;20029;-75
2024/03/25 09:07:39;;;;;;;13.88;3.30;;;9.10;99.90;;;;;;5014271;28;20053;-75
2024/03/25 09:12:49;;;;;;;15.93;4.00;;;9.30;99.90;;;;;;5019109;28;20045;-75
2024/03/25 09:15:15;;;;;;;16.20;4.18;;;9.30;99.90;;;;;;5011643;28;20038;-75
2024/03/25 09:17:41;;;;;;;14.07;3.47;;;9.30;99.90;;;;;;5015459;28;20099;-74
2024/03/25 09:20:20;;;;;;;12.27;4.22;;;9.40;99.90;;;;;;5020015;28;20486;-75
2024/03/25 09:22:48;;;;;;;18.58;3.95;;;9.60;99.90;;;;;;5021041;28;20115;-75
2024/03/25 09:25:14;;;;;;;15.38;2.92;;;9.60;99.90;;;;;;5011988;28;20033;-76
2024/03/25 09:27:40;;;;;;;10.52;2.25;;;9.70;99.90;;;;;;5017416;28;20040;-75
2024/03/25 09:30:08;;;;;;;12.63;2.45;;;9.80;99.90;;;;;;5009781;28;20022;-75
2024/03/25 09:32:34;;;;;;;16.77;3.20;;;9.80;99.90;;;;;;5020170;28;20390;-75
2024/03/25 09:35:00;;;;;;;13.02;3.15;;;9.90;99.90;;;;;;5014984;28;20024;-75
2024/03/25 09:37:26;;;;;;;16.38;3.42;;;10.00;99.90;;;;;;5011863;28;20021;-75
2024/03/25 09:39:52;;;;;;;15.20;3.65;;;10.10;99.90;;;;;;5018621;28;20063;-76
2024/03/25 09:42:33;;;;;;;12.88;3.65;;;10.10;99.90;;;;;;5017832;28;20128;-75
2024/03/25 09:44:59;;;;;;;18.40;4.35;;;10.10;99.90;;;;;;5013036;28;20037;-76
2024/03/25 09:47:25;;;;;;;15.35;4.57;;;10.10;99.90;;;;;;5012741;28;20026;-75
2024/03/25 09:49:54;;;;;;;21.90;4.13;;;10.10;99.90;;;;;;5034255;28;20168;-76
2024/03/25 09:52:20;;;;;;;14.82;3.35;;;10.10;99.90;;;;;;5017550;28;20368;-75
2024/03/25 09:54:45;;;;;;;13.85;3.17;;;10.10;99.90;;;;;;5025212;28;20020;-75
2024/03/25 09:57:12;;;;;;;11.93;3.10;;;10.10;99.90;;;;;;5016418;28;20034;-75
2024/03/25 09:59:38;;;;;;;16.38;2.88;;;10.20;99.90;;;;;;5019675;28;20084;-75
2024/03/25 10:02:05;;;;;;;11.93;2.42;;;10.30;99.90;;;;;;5017617;28;20029;-75
2024/03/25 10:04:30;;;;;;;10.40;2.83;;;10.40;99.90;;;;;;5015414;28;20033;-75
2024/03/25 10:06:56;;;;;;;16.02;3.58;;;10.40;99.90;;;;;;5028535;28;20533;-75
2024/03/25 10:09:22;;;;;;;17.25;3.15;;;10.50;99.90;;;;;;5029171;28;20025;-75
2024/03/25 10:11:51;;;;;;;15.30;3.13;;;10.50;99.90;;;;;;5015651;28;20219;-75
2024/03/25 10:14:18;;;;;;;13.32;2.90;;;10.60;99.90;;;;;;5019349;28;20104;-75
2024/03/25 10:16:44;;;;;;;11.68;3.80;;;10.70;99.90;;;;;;5023691;28;20494;-76
2024/03/25 10:19:10;;;;;;;13.50;2.67;;;10.70;99.90;;;;;;5017701;28;20079;-75
2024/03/25 10:21:36;;;;;;;8.15;2.40;;;10.80;99.90;;;;;;5021335;28;20608;-75
2024/03/25 10:24:04;;;;;;;10.50;3.45;;;10.90;99.90;;;;;;5029364;28;20414;-75
2024/03/25 10:26:32;;;;;;;14.60;3.28;;;10.90;99.90;;;;;;5029468;28;20030;-76
2024/03/25 10:29:06;;;;;;;12.07;2.95;;;11.00;99.90;;;;;;5013697;28;20026;-76
2024/03/25 10:31:31;;;;;;;13.23;3.38;;;11.10;99.90;;;;;;5016904;28;20033;-76
2024/03/25 10:33:57;;;;;;;9.32;3.03;;;11.20;99.90;;;;;;5028861;28;20029;-75
2024/03/25 10:36:24;;;;;;;8.90;2.58;;;11.30;99.90;;;;;;5016797;28;20056;-75
2024/03/25 10:39:00;;;;;;;11.20;2.88;;;11.40;99.90;;;;;;5017290;28;20483;-75
2024/03/25 10:41:28;;;;;;;10.55;2.95;;;11.60;99.90;;;;;;5015940;28;20856;-76
2024/03/25 10:43:54;;;;;;;13.80;2.75;;;11.80;99.90;;;;;;5028114;28;20036;-75
2024/03/25 10:46:22;;;;;;;12.60;3.20;;;11.90;99.90;;;;;;5030047;28;20025;-75
2024/03/25 10:49:15;;;;;;;9.68;3.05;;;12.00;99.90;;;;;;5019478;28;20037;-75
2024/03/25 10:51:41;;;;;;;9.57;2.60;;;12.10;99.90;;;;;;5015811;28;20119;-76
2024/03/25 10:54:08;;;;;;;16.00;3.03;;;12.20;99.90;;;;;;5018243;28;20160;-76
2024/03/25 10:56:34;;;;;;;10.88;3.03;;;12.30;99.90;;;;;;5024016;28;20623;-75
2024/03/25 10:59:01;;;;;;;10.52;2.92;;;12.50;99.90;;;;;;5026995;28;20025;-76
2024/03/25 11:01:27;;;;;;;13.25;2.58;;;12.50;99.90;;;;;;5029911;28;20474;-75
2024/03/25 11:03:53;;;;;;;7.90;2.80;;;12.60;99.90;;;;;;5022121;28;20022;-75
2024/03/25 11:06:18;;;;;;;9.43;2.70;;;12.70;99.90;;;;;;5023176;28;20025;-75
2024/03/25 11:08:47;;;;;;;10.75;2.88;;;12.70;99.90;;;;;;5014952;28;20029;-73
2024/03/25 11:11:13;;;;;;;8.27;2.20;;;12.80;99.90;;;;;;5015720;28;20022;-73
2024/03/25 11:13:39;;;;;;;12.45;3.10;;;12.80;99.90;;;;;;5028695;28;20022;-73
2024/03/25 11:16:07;;;;;;;10.27;2.70;;;12.90;99.90;;;;;;5029281;28;20124;-74
2024/03/25 11:18:33;;;;;;;9.70;2.95;;;13.00;99.90;;;;;;5014555;28;20557;-73
2024/03/25 11:21:04;;;;;;;9.73;2.92;;;12.80;99.90;;;;;;5020209;28;20030;-74
2024/03/25 11:23:41;;;;;;;9.55;3.20;;;12.70;99.90;;;;;;5025002;28;20022;-73
2024/03/25 11:26:27;;;;;;;11.45;2.67;;;12.70;99.90;;;;;;5018905;28;20095;-73
2024/03/25 11:28:53;;;;;;;11.40;2.80;;;12.70;99.90;;;;;;5013902;28;20025;-73
2024/03/25 11:31:21;;;;;;;8.85;2.80;;;12.60;99.90;;;;;;5016403;28;20029;-73
2024/03/25 11:33:47;;;;;;;7.95;2.70;;;12.60;99.90;;;;;;5016893;28;20033;-73
2024/03/25 11:36:13;;;;;;;9.13;2.65;;;12.60;99.90;;;;;;5028452;28;20092;-74
2024/03/25 11:38:41;;;;;;;14.05;3.00;;;12.70;99.90;;;;;;5030623;28;20650;-75
2024/03/25 11:41:08;;;;;;;8.05;2.80;;;12.70;99.90;;;;;;5028820;28;20474;-73
2024/03/25 11:43:34;;;;;;;8.45;2.28;;;12.80;99.90;;;;;;5029141;28;20112;-74
2024/03/25 11:45:59;;;;;;;8.30;2.60;;;13.00;99.90;;;;;;5015225;28;20033;-75
2024/03/25 11:48:25;;;;;;;7.32;2.65;;;13.10;99.90;;;;;;5027173;28;20033;-74
2024/03/25 11:50:51;;;;;;;6.57;2.42;;;13.00;99.90;;;;;;5029751;28;20041;-76
2024/03/25 11:53:17;;;;;;;8.40;2.38;;;13.00;99.90;;;;;;5028946;28;20076;-76
2024/03/25 11:55:47;;;;;;;8.82;2.67;;;13.10;99.90;;;;;;5030904;28;20036;-74
2024/03/25 11:58:16;;;;;;;10.03;2.50;;;13.10;99.90;;;;;;5027652;28;20029;-74
2024/03/25 12:00:49;;;;;;;10.20;2.97;;;13.20;99.90;;;;;;5017681;28;20056;-75
2024/03/25 12:03:16;;;;;;;10.35;3.20;;;13.30;99.90;;;;;;5029748;28;20091;-75
2024/03/25 12:05:42;;;;;;;11.88;3.03;;;13.30;99.90;;;;;;5019558;28;20032;-74
2024/03/25 12:08:10;;;;;;;9.52;2.55;;;13.10;99.90;;;;;;5010463;28;20030;-75
2024/03/25 12:13:21;;;;;;;6.03;2.60;;;12.80;99.90;;;;;;5027997;28;20048;-76
2024/03/25 12:15:48;;;;;;;12.20;2.78;;;12.60;99.90;;;;;;5016699;28;20025;-75
2024/03/25 12:18:14;;;;;;;6.10;2.30;;;12.60;99.90;;;;;;5027432;28;20124;-75
2024/03/25 12:20:40;;;;;;;8.13;2.45;;;12.70;99.90;;;;;;5027075;28;20103;-76
2024/03/25 12:23:06;;;;;;;6.07;2.35;;;12.90;99.90;;;;;;5026492;28;20847;-75
2024/03/25 12:25:32;;;;;;;7.00;2.20;;;13.00;99.90;;;;;;5012908;28;20032;-75
2024/03/25 12:27:57;;;;;;;6.28;2.70;;;13.00;99.90;;;;;;5016175;28;20041;-75
2024/03/25 12:30:23;;;;;;;9.00;2.47;;;13.10;99.90;;;;;;5019846;28;20033;-75
2024/03/25 12:32:50;;;;;;;9.60;2.65;;;13.20;99.90;;;;;;5013359;28;20024;-74
2024/03/25 12:35:17;;;;;;;10.25;2.80;;;13.20;99.90;;;;;;5015409;28;20425;-75
2024/03/25 12:37:45;;;;;;;7.35;2.75;;;13.20;99.90;;;;;;5021308;28;20018;-75
2024/03/25 12:40:14;;;;;;;7.85;2.80;;;13.10;99.90;;;;;;5017701;28;20045;-76
2024/03/25 12:42:39;;;;;;;7.82;2.78;;;13.00;99.90;;;;;;5025055;28;20030;-75
2024/03/25 12:45:08;;;;;;;8.85;2.70;;;12.90;99.90;;;;;;5025238;28;20399;-75
2024/03/25 12:47:34;;;;;;;7.70;3.08;;;12.90;99.90;;;;;;5024394;28;20033;-74
2024/03/25 12:50:00;;;;;;;8.50;3.17;;;13.00;99.90;;;;;;5026280;28;20036;-75
2024/03/25 12:52:26;;;;;;;11.00;3.50;;;13.20;99.90;;;;;;5025919;28;20030;-75